sensor_id;sensor_type;location;lat;lon;timestamp;pressure;altitude;pressure_sealevel;temperature;humidity
23303;BME280;11820;48.738;9.092;2023-08-07T00:02:02;96136.63;;;12.40;100.00
23303;BME280;11820;48.738;9.092;2023-08-07T00:04:28;96146.00;;;12.41;100.00
23303;BME280;11820;48.738;9.092;2023-08-07T00:06:53;96144.16;;;12.48;100.00
23303;BME280;11820;48.738;9.092;2023-08-07T00:09:18;96142.22;;;12.37;100.00
23303;BME280;11820;48.738;9.092;2023-08-07T00:11:44;96144.28;;;12.22;100.00
23303;BME280;11820;48.738;9.092;2023-08-07T00:14:09;96139.13;;;12.22;100.00
23303;BME280;11820;48.738;9.092;2023-08-07T00:16:34;96144.41;;;12.40;100.00
23303;BME280;11820;48.738;9.092;2023-08-07T00:19:00;96144.41;;;12.40;100.00
23303;BME280;11820;48.738;9.092;2023-08-07T00:21:25;96157.00;;;12.36;100.00
23303;BME280;11820;48.738;9.092;2023-08-07T00:23:50;96144.63;;;12.32;100.00
23303;BME280;11820;48.738;9.092;2023-08-07T00:26:16;96157.53;;;12.51;100.00
23303;BME280;11820;48.738;9.092;2023-08-07T00:28:41;96158.59;;;12.37;100.00
23303;BME280;11820;48.738;9.092;2023-08-07T00:31:06;96157.72;;;12.50;100.00
23303;BME280;11820;48.738;9.092;2023-08-07T00:33:32;96162.16;;;12.43;100.00
23303;BME280;11820;48.738;9.092;2023-08-07T00:35:57;96161.56;;;12.41;100.00
23303;BME280;11820;48.738;9.092;2023-08-07T00:38:22;96168.56;;;12.34;100.00
23303;BME280;11820;48.738;9.092;2023-08-07T00:40:48;96155.00;;;12.32;100.00
23303;BME280;11820;48.738;9.092;2023-08-07T00:43:13;96167.53;;;12.41;100.00
23303;BME280;11820;48.738;9.092;2023-08-07T00:45:43;96166.38;;;12.31;100.00
23303;BME280;11820;48.738;9.092;2023-08-07T00:48:09;96168.78;;;12.32;100.00
23303;BME280;11820;48.738;9.092;2023-08-07T00:50:34;96167.94;;;12.38;100.00
23303;BME280;11820;48.738;9.092;2023-08-07T00:53:00;96178.97;;;12.27;100.00
23303;BME280;11820;48.738;9.092;2023-08-07T00:55:25;96174.91;;;12.38;100.00
23303;BME280;11820;48.738;9.092;2023-08-07T00:57:51;96178.16;;;12.27;100.00
23303;BME280;11820;48.738;9.092;2023-08-07T01:00:18;96172.94;;;12.40;100.00
23303;BME280;11820;48.738;9.092;2023-08-07T01:02:44;96180.25;;;12.49;100.00
23303;BME280;11820;48.738;9.092;2023-08-07T01:05:09;96177.31;;;12.39;100.00
23303;BME280;11820;48.738;9.092;2023-08-07T01:07:34;96180.31;;;12.43;100.00
23303;BME280;11820;48.738;9.092;2023-08-07T01:10:00;96183.69;;;12.37;100.00
23303;BME280;11820;48.738;9.092;2023-08-07T01:12:37;96191.59;;;12.55;100.00
23303;BME280;11820;48.738;9.092;2023-08-07T01:15:15;96189.00;;;12.55;100.00
23303;BME280;11820;48.738;9.092;2023-08-07T01:17:44;96186.59;;;12.60;100.00
23303;BME280;11820;48.738;9.092;2023-08-07T01:20:10;96188.50;;;12.40;100.00
23303;BME280;11820;48.738;9.092;2023-08-07T01:22:36;96180.47;;;12.48;100.00
23303;BME280;11820;48.738;9.092;2023-08-07T01:25:02;96187.66;;;12.46;100.00
23303;BME280;11820;48.738;9.092;2023-08-07T01:28:35;96187.59;;;12.59;100.00
23303;BME280;11820;48.738;9.092;2023-08-07T01:30:42;96181.19;;;12.68;100.00
23303;BME280;11820;48.738;9.092;2023-08-07T01:33:24;96188.25;;;12.48;100.00
23303;BME280;11820;48.738;9.092;2023-08-07T01:35:53;96184.66;;;12.49;100.00
23303;BME280;11820;48.738;9.092;2023-08-07T01:38:24;96188.59;;;12.58;100.00
23303;BME280;11820;48.738;9.092;2023-08-07T01:40:51;96190.03;;;12.54;100.00
23303;BME280;11820;48.738;9.092;2023-08-07T01:43:17;96192.91;;;12.33;100.00
23303;BME280;11820;48.738;9.092;2023-08-07T01:45:44;96200.06;;;12.37;100.00
23303;BME280;11820;48.738;9.092;2023-08-07T01:48:10;96191.97;;;12.65;100.00
23303;BME280;11820;48.738;9.092;2023-08-07T01:50:35;96195.34;;;12.65;100.00
23303;BME280;11820;48.738;9.092;2023-08-07T01:53:01;96198.38;;;12.62;100.00
23303;BME280;11820;48.738;9.092;2023-08-07T01:55:27;96198.19;;;12.57;100.00
23303;BME280;11820;48.738;9.092;2023-08-07T01:57:53;96197.66;;;12.42;100.00
23303;BME280;11820;48.738;9.092;2023-08-07T02:00:18;96204.59;;;12.48;100.00
23303;BME280;11820;48.738;9.092;2023-08-07T02:02:43;96190.78;;;12.61;100.00
23303;BME280;11820;48.738;9.092;2023-08-07T02:05:10;96195.22;;;12.54;100.00
23303;BME280;11820;48.738;9.092;2023-08-07T02:07:36;96191.34;;;12.63;100.00
23303;BME280;11820;48.738;9.092;2023-08-07T02:10:01;96195.19;;;12.60;100.00
23303;BME280;11820;48.738;9.092;2023-08-07T02:12:26;96205.00;;;12.52;100.00
23303;BME280;11820;48.738;9.092;2023-08-07T02:14:52;96207.47;;;12.34;100.00
23303;BME280;11820;48.738;9.092;2023-08-07T02:17:20;96214.47;;;12.27;100.00
23303;BME280;11820;48.738;9.092;2023-08-07T02:19:45;96207.66;;;12.39;100.00
23303;BME280;11820;48.738;9.092;2023-08-07T02:22:11;96216.56;;;12.49;100.00
23303;BME280;11820;48.738;9.092;2023-08-07T02:24:36;96211.00;;;12.46;100.00
23303;BME280;11820;48.738;9.092;2023-08-07T02:27:01;96218.63;;;12.41;100.00
23303;BME280;11820;48.738;9.092;2023-08-07T02:29:27;96218.81;;;12.39;100.00
23303;BME280;11820;48.738;9.092;2023-08-07T02:31:52;96228.44;;;12.26;100.00
23303;BME280;11820;48.738;9.092;2023-08-07T02:34:17;96228.19;;;12.34;100.00
23303;BME280;11820;48.738;9.092;2023-08-07T02:36:43;96228.59;;;12.31;100.00
23303;BME280;11820;48.738;9.092;2023-08-07T02:39:08;96227.25;;;12.28;100.00
23303;BME280;11820;48.738;9.092;2023-08-07T02:41:33;96233.25;;;12.16;100.00
23303;BME280;11820;48.738;9.092;2023-08-07T02:43:58;96218.03;;;12.32;100.00
23303;BME280;11820;48.738;9.092;2023-08-07T02:46:24;96231.03;;;12.26;100.00
23303;BME280;11820;48.738;9.092;2023-08-07T02:48:49;96229.25;;;12.26;100.00
23303;BME280;11820;48.738;9.092;2023-08-07T02:51:15;96224.06;;;12.20;100.00
23303;BME280;11820;48.738;9.092;2023-08-07T02:53:40;96219.88;;;12.19;100.00
23303;BME280;11820;48.738;9.092;2023-08-07T02:56:05;96218.31;;;12.05;100.00
23303;BME280;11820;48.738;9.092;2023-08-07T02:58:31;96225.09;;;12.06;100.00
23303;BME280;11820;48.738;9.092;2023-08-07T03:00:56;96227.47;;;12.14;100.00
23303;BME280;11820;48.738;9.092;2023-08-07T03:03:21;96220.50;;;12.08;100.00
23303;BME280;11820;48.738;9.092;2023-08-07T03:05:50;96226.66;;;12.20;100.00
23303;BME280;11820;48.738;9.092;2023-08-07T03:08:17;96228.28;;;12.14;100.00
23303;BME280;11820;48.738;9.092;2023-08-07T03:10:42;96231.69;;;12.02;100.00
23303;BME280;11820;48.738;9.092;2023-08-07T03:13:07;96227.72;;;11.93;100.00
23303;BME280;11820;48.738;9.092;2023-08-07T03:15:33;96237.28;;;11.99;100.00
23303;BME280;11820;48.738;9.092;2023-08-07T03:17:58;96237.88;;;12.01;100.00
23303;BME280;11820;48.738;9.092;2023-08-07T03:20:23;96238.47;;;12.03;100.00
23303;BME280;11820;48.738;9.092;2023-08-07T03:22:49;96236.88;;;11.95;100.00
23303;BME280;11820;48.738;9.092;2023-08-07T03:25:14;96243.28;;;11.86;100.00
23303;BME280;11820;48.738;9.092;2023-08-07T03:27:39;96246.47;;;11.82;100.00
23303;BME280;11820;48.738;9.092;2023-08-07T03:30:05;96249.47;;;11.92;100.00
23303;BME280;11820;48.738;9.092;2023-08-07T03:32:31;96243.69;;;11.90;100.00
23303;BME280;11820;48.738;9.092;2023-08-07T03:34:56;96247.25;;;12.02;100.00
23303;BME280;11820;48.738;9.092;2023-08-07T03:37:21;96254.03;;;11.90;100.00
23303;BME280;11820;48.738;9.092;2023-08-07T03:39:47;96248.47;;;11.80;100.00
23303;BME280;11820;48.738;9.092;2023-08-07T03:42:13;96246.81;;;12.05;100.00
23303;BME280;11820;48.738;9.092;2023-08-07T03:44:40;96237.50;;;11.91;100.00
23303;BME280;11820;48.738;9.092;2023-08-07T03:47:05;96243.28;;;11.86;100.00
23303;BME280;11820;48.738;9.092;2023-08-07T03:49:30;96245.69;;;11.88;100.00
23303;BME280;11820;48.738;9.092;2023-08-07T03:51:56;96249.88;;;11.89;100.00
23303;BME280;11820;48.738;9.092;2023-08-07T03:54:21;96246.25;;;11.96;100.00
23303;BME280;11820;48.738;9.092;2023-08-07T03:56:47;96246.50;;;11.69;100.00
23303;BME280;11820;48.738;9.092;2023-08-07T03:59:13;96241.69;;;11.79;100.00
23303;BME280;11820;48.738;9.092;2023-08-07T04:01:38;96249.28;;;11.80;100.00
23303;BME280;11820;48.738;9.092;2023-08-07T04:04:03;96245.09;;;11.79;100.00
23303;BME280;11820;48.738;9.092;2023-08-07T04:06:29;96250.47;;;11.78;100.00
23303;BME280;11820;48.738;9.092;2023-08-07T04:08:54;96244.88;;;11.81;100.00
23303;BME280;11820;48.738;9.092;2023-08-07T04:11:19;96250.88;;;11.88;100.00
23303;BME280;11820;48.738;9.092;2023-08-07T04:13:45;96248.06;;;11.83;100.00
23303;BME280;11820;48.738;9.092;2023-08-07T04:16:10;96240.31;;;11.76;100.00
23303;BME280;11820;48.738;9.092;2023-08-07T04:18:36;96246.47;;;11.82;100.00
23303;BME280;11820;48.738;9.092;2023-08-07T04:21:01;96250.06;;;11.68;100.00
23303;BME280;11820;48.738;9.092;2023-08-07T04:23:26;96243.09;;;11.75;100.00
23303;BME280;11820;48.738;9.092;2023-08-07T04:25:53;96246.28;;;11.77;100.00
23303;BME280;11820;48.738;9.092;2023-08-07T04:28:19;96251.25;;;11.85;100.00
23303;BME280;11820;48.738;9.092;2023-08-07T04:30:45;96246.88;;;11.79;100.00
23303;BME280;11820;48.738;9.092;2023-08-07T04:33:13;96255.25;;;11.74;100.00
23303;BME280;11820;48.738;9.092;2023-08-07T04:35:39;96247.50;;;11.68;100.00
23303;BME280;11820;48.738;9.092;2023-08-07T04:38:05;96256.22;;;11.73;100.00
23303;BME280;11820;48.738;9.092;2023-08-07T04:40:30;96254.03;;;11.70;100.00
23303;BME280;11820;48.738;9.092;2023-08-07T04:42:56;96263.19;;;11.86;100.00
23303;BME280;11820;48.738;9.092;2023-08-07T04:45:21;96258.63;;;11.81;100.00
23303;BME280;11820;48.738;9.092;2023-08-07T04:47:46;96261.00;;;11.83;100.00
23303;BME280;11820;48.738;9.092;2023-08-07T04:50:12;96255.22;;;11.94;100.00
23303;BME280;11820;48.738;9.092;2023-08-07T04:52:37;96266.78;;;11.85;100.00
23303;BME280;11820;48.738;9.092;2023-08-07T04:55:04;96262.81;;;11.89;100.00
23303;BME280;11820;48.738;9.092;2023-08-07T04:57:29;96255.63;;;11.91;100.00
23303;BME280;11820;48.738;9.092;2023-08-07T04:59:54;96266.00;;;11.91;100.00
23303;BME280;11820;48.738;9.092;2023-08-07T05:02:20;96273.75;;;11.97;100.00
23303;BME280;11820;48.738;9.092;2023-08-07T05:04:45;96273.56;;;11.99;100.00
23303;BME280;11820;48.738;9.092;2023-08-07T05:07:11;96270.97;;;12.05;100.00
23303;BME280;11820;48.738;9.092;2023-08-07T05:09:37;96271.16;;;12.04;100.00
23303;BME280;11820;48.738;9.092;2023-08-07T05:12:03;96271.56;;;12.14;100.00
23303;BME280;11820;48.738;9.092;2023-08-07T05:14:29;96262.56;;;12.16;100.00
23303;BME280;11820;48.738;9.092;2023-08-07T05:16:54;96266.31;;;12.27;100.00
23303;BME280;11820;48.738;9.092;2023-08-07T05:19:20;96266.72;;;12.24;100.00
23303;BME280;11820;48.738;9.092;2023-08-07T05:21:45;96271.09;;;12.30;100.00
23303;BME280;11820;48.738;9.092;2023-08-07T05:24:15;96274.28;;;12.38;100.00
23303;BME280;11820;48.738;9.092;2023-08-07T05:26:40;96272.84;;;12.49;100.00
23303;BME280;11820;48.738;9.092;2023-08-07T05:29:06;96271.25;;;12.48;100.00
23303;BME280;11820;48.738;9.092;2023-08-07T05:31:32;96276.59;;;12.59;100.00
23303;BME280;11820;48.738;9.092;2023-08-07T05:33:57;96285.53;;;12.70;100.00
23303;BME280;11820;48.738;9.092;2023-08-07T05:36:22;96277.97;;;12.62;100.00
23303;BME280;11820;48.738;9.092;2023-08-07T05:38:48;96293.75;;;12.67;100.00
23303;BME280;11820;48.738;9.092;2023-08-07T05:41:13;96289.66;;;12.84;100.00
23303;BME280;11820;48.738;9.092;2023-08-07T05:43:38;96294.63;;;12.92;100.00
23303;BME280;11820;48.738;9.092;2023-08-07T05:46:04;96292.69;;;12.81;100.00
23303;BME280;11820;48.738;9.092;2023-08-07T05:48:29;96293.25;;;12.83;100.00
23303;BME280;11820;48.738;9.092;2023-08-07T05:50:55;96296.41;;;12.91;100.00
23303;BME280;11820;48.738;9.092;2023-08-07T05:53:20;96298.03;;;12.86;100.00
23303;BME280;11820;48.738;9.092;2023-08-07T05:55:45;96299.63;;;12.93;100.00
23303;BME280;11820;48.738;9.092;2023-08-07T05:58:11;96301.69;;;12.78;100.00
23303;BME280;11820;48.738;9.092;2023-08-07T06:00:36;96304.63;;;12.95;100.00
23303;BME280;11820;48.738;9.092;2023-08-07T06:03:02;96309.25;;;12.93;100.00
23303;BME280;11820;48.738;9.092;2023-08-07T06:05:27;96306.66;;;12.93;100.00
23303;BME280;11820;48.738;9.092;2023-08-07T06:07:53;96306.41;;;12.94;100.00
23303;BME280;11820;48.738;9.092;2023-08-07T06:10:18;96310.00;;;12.99;100.00
23303;BME280;11820;48.738;9.092;2023-08-07T06:12:44;96309.41;;;12.98;100.00
23303;BME280;11820;48.738;9.092;2023-08-07T06:15:10;96315.19;;;12.99;100.00
23303;BME280;11820;48.738;9.092;2023-08-07T06:17:35;96314.38;;;12.99;100.00
23303;BME280;11820;48.738;9.092;2023-08-07T06:20:00;96322.50;;;13.15;100.00
23303;BME280;11820;48.738;9.092;2023-08-07T06:22:26;96329.50;;;13.15;100.00
23303;BME280;11820;48.738;9.092;2023-08-07T06:24:51;96330.69;;;13.12;100.00
23303;BME280;11820;48.738;9.092;2023-08-07T06:27:17;96326.91;;;13.08;100.00
23303;BME280;11820;48.738;9.092;2023-08-07T06:29:42;96333.81;;;13.27;100.00
23303;BME280;11820;48.738;9.092;2023-08-07T06:32:08;96327.34;;;13.05;100.00
23303;BME280;11820;48.738;9.092;2023-08-07T06:34:35;96344.41;;;13.26;100.00
23303;BME280;11820;48.738;9.092;2023-08-07T06:37:03;96336.56;;;13.39;100.00
23303;BME280;11820;48.738;9.092;2023-08-07T06:39:28;96335.81;;;13.32;100.00
23303;BME280;11820;48.738;9.092;2023-08-07T06:41:54;96323.75;;;13.37;100.00
23303;BME280;11820;48.738;9.092;2023-08-07T06:44:20;96329.78;;;13.31;100.00
23303;BME280;11820;48.738;9.092;2023-08-07T06:46:45;96329.75;;;13.44;100.00
23303;BME280;11820;48.738;9.092;2023-08-07T06:49:10;96335.34;;;13.41;100.00
23303;BME280;11820;48.738;9.092;2023-08-07T06:51:36;96323.44;;;13.58;100.00
23303;BME280;11820;48.738;9.092;2023-08-07T06:54:01;96329.88;;;13.80;100.00
23303;BME280;11820;48.738;9.092;2023-08-07T06:56:26;96333.78;;;13.65;100.00
23303;BME280;11820;48.738;9.092;2023-08-07T06:58:52;96334.91;;;13.75;100.00
23303;BME280;11820;48.738;9.092;2023-08-07T07:01:17;96337.63;;;13.87;100.00
23303;BME280;11820;48.738;9.092;2023-08-07T07:03:42;96338.19;;;13.95;100.00
23303;BME280;11820;48.738;9.092;2023-08-07T07:06:10;96335.50;;;13.77;100.00
23303;BME280;11820;48.738;9.092;2023-08-07T07:08:37;96336.78;;;13.68;100.00
23303;BME280;11820;48.738;9.092;2023-08-07T07:11:02;96323.78;;;13.93;100.00
23303;BME280;11820;48.738;9.092;2023-08-07T07:13:29;96332.97;;;13.95;100.00
23303;BME280;11820;48.738;9.092;2023-08-07T07:15:55;96331.09;;;14.02;100.00
23303;BME280;11820;48.738;9.092;2023-08-07T07:18:20;96342.59;;;13.88;100.00
23303;BME280;11820;48.738;9.092;2023-08-07T07:20:45;96334.06;;;13.57;100.00
23303;BME280;11820;48.738;9.092;2023-08-07T07:23:11;96344.25;;;13.52;100.00
23303;BME280;11820;48.738;9.092;2023-08-07T07:25:36;96348.50;;;13.46;100.00
23303;BME280;11820;48.738;9.092;2023-08-07T07:28:02;96346.94;;;13.39;100.00
23303;BME280;11820;48.738;9.092;2023-08-07T07:30:27;96352.75;;;13.34;100.00
23303;BME280;11820;48.738;9.092;2023-08-07T07:32:52;96346.91;;;13.45;100.00
23303;BME280;11820;48.738;9.092;2023-08-07T07:35:18;96354.28;;;13.48;100.00
23303;BME280;11820;48.738;9.092;2023-08-07T07:37:43;96344.06;;;13.53;100.00
23303;BME280;11820;48.738;9.092;2023-08-07T07:40:11;96348.75;;;13.69;100.00
23303;BME280;11820;48.738;9.092;2023-08-07T07:42:37;96339.53;;;13.73;100.00
23303;BME280;11820;48.738;9.092;2023-08-07T07:45:02;96355.03;;;13.86;100.00
23303;BME280;11820;48.738;9.092;2023-08-07T07:47:29;96358.16;;;13.95;100.00
23303;BME280;11820;48.738;9.092;2023-08-07T07:50:04;96346.41;;;14.17;100.00
23303;BME280;11820;48.738;9.092;2023-08-07T07:52:32;96347.34;;;14.47;100.00
23303;BME280;11820;48.738;9.092;2023-08-07T07:54:58;96352.03;;;14.56;100.00
23303;BME280;11820;48.738;9.092;2023-08-07T07:57:23;96353.16;;;14.66;100.00
23303;BME280;11820;48.738;9.092;2023-08-07T07:59:49;96350.59;;;14.60;100.00
23303;BME280;11820;48.738;9.092;2023-08-07T08:02:15;96360.38;;;14.64;100.00
23303;BME280;11820;48.738;9.092;2023-08-07T08:04:41;96369.84;;;14.77;100.00
23303;BME280;11820;48.738;9.092;2023-08-07T08:07:06;96378.31;;;14.72;100.00
23303;BME280;11820;48.738;9.092;2023-08-07T08:09:32;96381.25;;;14.58;100.00
23303;BME280;11820;48.738;9.092;2023-08-07T08:11:57;96363.91;;;14.52;100.00
23303;BME280;11820;48.738;9.092;2023-08-07T08:14:22;96384.00;;;14.45;100.00
23303;BME280;11820;48.738;9.092;2023-08-07T08:16:48;96371.25;;;14.37;100.00
23303;BME280;11820;48.738;9.092;2023-08-07T08:19:13;96370.81;;;14.40;100.00
23303;BME280;11820;48.738;9.092;2023-08-07T08:21:40;96387.19;;;14.47;100.00
23303;BME280;11820;48.738;9.092;2023-08-07T08:24:08;96383.00;;;14.46;100.00
23303;BME280;11820;48.738;9.092;2023-08-07T08:26:34;96374.59;;;14.44;100.00
23303;BME280;11820;48.738;9.092;2023-08-07T08:28:59;96386.47;;;14.58;100.00
23303;BME280;11820;48.738;9.092;2023-08-07T08:31:25;96380.63;;;14.63;100.00
23303;BME280;11820;48.738;9.092;2023-08-07T08:33:50;96384.88;;;14.57;100.00
23303;BME280;11820;48.738;9.092;2023-08-07T08:36:15;96388.78;;;14.66;100.00
23303;BME280;11820;48.738;9.092;2023-08-07T08:38:41;96393.13;;;14.90;100.00
23303;BME280;11820;48.738;9.092;2023-08-07T08:41:07;96395.53;;;14.91;100.00
23303;BME280;11820;48.738;9.092;2023-08-07T08:43:35;96377.06;;;14.93;100.00
23303;BME280;11820;48.738;9.092;2023-08-07T08:46:04;96385.31;;;15.26;100.00
23303;BME280;11820;48.738;9.092;2023-08-07T08:48:34;96393.06;;;15.50;100.00
23303;BME280;11820;48.738;9.092;2023-08-07T08:51:00;96397.03;;;15.53;100.00
23303;BME280;11820;48.738;9.092;2023-08-07T08:53:27;96389.53;;;15.45;100.00
23303;BME280;11820;48.738;9.092;2023-08-07T08:55:52;96395.34;;;15.29;100.00
23303;BME280;11820;48.738;9.092;2023-08-07T08:58:19;96396.13;;;15.11;100.00
23303;BME280;11820;48.738;9.092;2023-08-07T09:00:45;96390.97;;;15.23;100.00
23303;BME280;11820;48.738;9.092;2023-08-07T09:03:11;96394.63;;;15.51;100.00
23303;BME280;11820;48.738;9.092;2023-08-07T09:05:37;96402.13;;;15.12;100.00
23303;BME280;11820;48.738;9.092;2023-08-07T09:08:03;96393.66;;;14.98;100.00
23303;BME280;11820;48.738;9.092;2023-08-07T09:10:29;96390.81;;;15.18;100.00
23303;BME280;11820;48.738;9.092;2023-08-07T09:13:03;96410.31;;;15.33;100.00
23303;BME280;11820;48.738;9.092;2023-08-07T09:15:31;96400.09;;;15.32;100.00
23303;BME280;11820;48.738;9.092;2023-08-07T09:17:57;96401.31;;;15.29;100.00
23303;BME280;11820;48.738;9.092;2023-08-07T09:20:24;96392.34;;;15.43;100.00
23303;BME280;11820;48.738;9.092;2023-08-07T09:22:50;96400.75;;;15.45;100.00
23303;BME280;11820;48.738;9.092;2023-08-07T09:25:35;96395.72;;;15.62;100.00
23303;BME280;11820;48.738;9.092;2023-08-07T09:28:02;96396.94;;;15.89;100.00
23303;BME280;11820;48.738;9.092;2023-08-07T09:30:35;96401.94;;;15.90;100.00
23303;BME280;11820;48.738;9.092;2023-08-07T09:33:02;96405.38;;;16.14;100.00
23303;BME280;11820;48.738;9.092;2023-08-07T09:35:29;96417.66;;;15.84;100.00
23303;BME280;11820;48.738;9.092;2023-08-07T09:37:59;96407.81;;;15.86;100.00
23303;BME280;11820;48.738;9.092;2023-08-07T09:40:25;96416.19;;;16.17;100.00
23303;BME280;11820;48.738;9.092;2023-08-07T09:42:51;96416.31;;;16.33;100.00
23303;BME280;11820;48.738;9.092;2023-08-07T09:48:04;96424.94;;;16.23;100.00
23303;BME280;11820;48.738;9.092;2023-08-07T09:50:31;96422.75;;;16.20;100.00
23303;BME280;11820;48.738;9.092;2023-08-07T09:52:56;96437.84;;;16.18;100.00
23303;BME280;11820;48.738;9.092;2023-08-07T09:55:23;96442.41;;;16.22;100.00
23303;BME280;11820;48.738;9.092;2023-08-07T09:57:50;96437.75;;;16.24;100.00
23303;BME280;11820;48.738;9.092;2023-08-07T10:00:16;96449.81;;;15.96;100.00
23303;BME280;11820;48.738;9.092;2023-08-07T10:02:46;96448.47;;;15.75;100.00
23303;BME280;11820;48.738;9.092;2023-08-07T10:05:11;96444.31;;;15.86;100.00
23303;BME280;11820;48.738;9.092;2023-08-07T10:07:38;96440.53;;;16.00;100.00
23303;BME280;11820;48.738;9.092;2023-08-07T10:10:05;96433.97;;;16.09;100.00
23303;BME280;11820;48.738;9.092;2023-08-07T10:12:31;96447.66;;;16.04;100.00
23303;BME280;11820;48.738;9.092;2023-08-07T10:14:59;96430.44;;;16.55;100.00
23303;BME280;11820;48.738;9.092;2023-08-07T10:17:24;96440.81;;;16.32;100.00
23303;BME280;11820;48.738;9.092;2023-08-07T10:19:51;96432.44;;;16.30;100.00
23303;BME280;11820;48.738;9.092;2023-08-07T10:22:18;96432.94;;;16.96;100.00
23303;BME280;11820;48.738;9.092;2023-08-07T10:24:47;96436.44;;;17.25;100.00
23303;BME280;11820;48.738;9.092;2023-08-07T10:27:18;96437.25;;;17.25;100.00
23303;BME280;11820;48.738;9.092;2023-08-07T10:29:46;96435.88;;;17.23;100.00
23303;BME280;11820;48.738;9.092;2023-08-07T10:32:14;96439.31;;;17.00;100.00
23303;BME280;11820;48.738;9.092;2023-08-07T10:34:42;96445.22;;;16.61;100.00
23303;BME280;11820;48.738;9.092;2023-08-07T10:37:32;96442.81;;;16.71;100.00
23303;BME280;11820;48.738;9.092;2023-08-07T10:40:05;96439.97;;;17.19;100.00
23303;BME280;11820;48.738;9.092;2023-08-07T10:45:18;96446.34;;;17.11;100.00
23303;BME280;11820;48.738;9.092;2023-08-07T10:53:41;96447.25;;;16.19;100.00
23303;BME280;11820;48.738;9.092;2023-08-07T10:58:54;96456.06;;;16.35;100.00
23303;BME280;11820;48.738;9.092;2023-08-07T11:04:00;96452.84;;;16.97;100.00
23303;BME280;11820;48.738;9.092;2023-08-07T11:06:28;96459.34;;;17.57;100.00
23303;BME280;11820;48.738;9.092;2023-08-07T11:08:57;96458.09;;;17.48;100.00
23303;BME280;11820;48.738;9.092;2023-08-07T11:11:23;96452.56;;;17.22;100.00
23303;BME280;11820;48.738;9.092;2023-08-07T11:13:49;96452.22;;;17.18;100.00
23303;BME280;11820;48.738;9.092;2023-08-07T11:16:14;96451.56;;;16.88;100.00
23303;BME280;11820;48.738;9.092;2023-08-07T11:18:40;96460.06;;;16.38;100.00
23303;BME280;11820;48.738;9.092;2023-08-07T11:21:10;96465.19;;;16.79;100.00
23303;BME280;11820;48.738;9.092;2023-08-07T11:23:40;96456.31;;;16.45;100.00
23303;BME280;11820;48.738;9.092;2023-08-07T11:26:06;96460.66;;;16.22;100.00
23303;BME280;11820;48.738;9.092;2023-08-07T11:28:32;96468.44;;;16.11;100.00
23303;BME280;11820;48.738;9.092;2023-08-07T11:30:57;96464.97;;;15.87;100.00
23303;BME280;11820;48.738;9.092;2023-08-07T11:33:23;96457.09;;;15.76;100.00
23303;BME280;11820;48.738;9.092;2023-08-07T11:35:49;96464.81;;;15.71;100.00
23303;BME280;11820;48.738;9.092;2023-08-07T11:38:29;96469.78;;;15.72;100.00
23303;BME280;11820;48.738;9.092;2023-08-07T11:41:01;96464.81;;;15.71;100.00
23303;BME280;11820;48.738;9.092;2023-08-07T11:43:28;96455.28;;;15.47;100.00
23303;BME280;11820;48.738;9.092;2023-08-07T11:45:55;96466.97;;;15.38;100.00
23303;BME280;11820;48.738;9.092;2023-08-07T11:48:24;96465.31;;;15.43;100.00
23303;BME280;11820;48.738;9.092;2023-08-07T11:50:51;96468.13;;;15.42;100.00
23303;BME280;11820;48.738;9.092;2023-08-07T11:53:16;96472.28;;;15.31;100.00
23303;BME280;11820;48.738;9.092;2023-08-07T11:55:52;96476.78;;;15.18;100.00
23303;BME280;11820;48.738;9.092;2023-08-07T11:58:18;96471.16;;;15.21;100.00
23303;BME280;11820;48.738;9.092;2023-08-07T12:00:44;96481.59;;;15.21;100.00
23303;BME280;11820;48.738;9.092;2023-08-07T12:05:53;96482.00;;;15.18;100.00
23303;BME280;11820;48.738;9.092;2023-08-07T12:08:19;96487.34;;;15.05;100.00
23303;BME280;11820;48.738;9.092;2023-08-07T12:10:45;96491.25;;;15.14;100.00
23303;BME280;11820;48.738;9.092;2023-08-07T12:13:13;96497.34;;;15.08;100.00
23303;BME280;11820;48.738;9.092;2023-08-07T12:15:38;96499.94;;;15.08;100.00
23303;BME280;11820;48.738;9.092;2023-08-07T12:18:07;96499.75;;;15.27;100.00
23303;BME280;11820;48.738;9.092;2023-08-07T12:20:32;96497.81;;;15.23;100.00
23303;BME280;11820;48.738;9.092;2023-08-07T12:22:57;96496.31;;;15.09;100.00
23303;BME280;11820;48.738;9.092;2023-08-07T12:25:23;96500.84;;;15.20;100.00
23303;BME280;11820;48.738;9.092;2023-08-07T12:27:48;96496.66;;;15.19;100.00
23303;BME280;11820;48.738;9.092;2023-08-07T12:30:14;96490.38;;;15.62;100.00
23303;BME280;11820;48.738;9.092;2023-08-07T12:32:40;96495.81;;;16.08;100.00
23303;BME280;11820;48.738;9.092;2023-08-07T12:35:05;96487.47;;;17.16;100.00
23303;BME280;11820;48.738;9.092;2023-08-07T12:37:34;96477.59;;;17.80;100.00
23303;BME280;11820;48.738;9.092;2023-08-07T12:39:59;96473.47;;;18.12;100.00
23303;BME280;11820;48.738;9.092;2023-08-07T12:42:24;96479.75;;;17.83;100.00
23303;BME280;11820;48.738;9.092;2023-08-07T12:44:50;96477.91;;;17.44;100.00
23303;BME280;11820;48.738;9.092;2023-08-07T12:47:15;96475.19;;;17.39;100.00
23303;BME280;11820;48.738;9.092;2023-08-07T12:49:40;96477.69;;;17.00;100.00
23303;BME280;11820;48.738;9.092;2023-08-07T12:52:06;96491.00;;;16.87;100.00
23303;BME280;11820;48.738;9.092;2023-08-07T12:54:31;96489.41;;;16.97;100.00
23303;BME280;11820;48.738;9.092;2023-08-07T12:56:57;96492.00;;;17.20;100.00
23303;BME280;11820;48.738;9.092;2023-08-07T12:59:23;96485.19;;;17.19;100.00
23303;BME280;11820;48.738;9.092;2023-08-07T13:01:48;96492.47;;;16.94;100.00
23303;BME280;11820;48.738;9.092;2023-08-07T13:04:13;96478.50;;;16.89;100.00
23303;BME280;11820;48.738;9.092;2023-08-07T13:06:40;96482.00;;;17.17;100.00